Flight Track Log - Related Links

Times and Time Zones

All times are in EDT time to prevent confusion due to time zone crossing. See the AAL2345 flight status page for this flight to view local times or setup timezone preferences in your user account.

Time Position Orientation Groundspeed Altitude Reporting Facility
EDT Latitude Longitude Course Direction KTS MPH feet Rate Location/Type
Sun 07:53:12 PM 41.9500 -87.9167 249° West 178 205 1,500  Level Chicago TRACON
Sun 07:55:35 PM 41.9011 -88.0911 249° West 263 303 6,500 2,341 Climbing Chicago Center
Sun 07:56:37 PM 41.8975 -88.1956 267° West 278 320 9,500 2,371 Climbing Chicago Center
Sun 07:57:39 PM 41.8856 -88.3011 261° West 289 333 11,400 1,742 Climbing Chicago Center
Sun 07:58:41 PM 41.8658 -88.4242 258° West 327 376 13,100 2,203 Climbing Chicago Center
Sun 07:59:47 PM 41.8400 -88.5844 258° West 361 415 16,100 2,484 Climbing Chicago Center
Sun 08:00:49 PM 41.8183 -88.7181 258° West 372 428 18,400 1,935 Climbing Chicago Center
Sun 08:01:51 PM 41.7950 -88.8578 257° West 383 441 20,100 1,790 Climbing Chicago Center
Sun 08:02:53 PM 41.7714 -89.0322 260° West 398 458 22,100 1,548 Climbing Chicago Center
Sun 08:03:55 PM 41.7497 -89.1814 259° West 408 470 23,300 1,065 Climbing Chicago Center
Sun 08:04:57 PM 41.7289 -89.3369 260° West 425 489 24,300 1,113 Climbing Chicago Center
Sun 08:05:59 PM 41.7117 -89.4944 262° West 429 494 25,600 1,113 Climbing Chicago Center
Sun 08:07:01 PM 41.7006 -89.6614 265° West 434 499 26,600 1,065 Climbing Chicago Center
Sun 08:08:03 PM 41.6858 -89.8244 263° West 443 510 27,800 677 Climbing Chicago Center
Sun 08:09:05 PM 41.6722 -89.9856 264° West 441 507 28,000 96 Climbing Chicago Center
Sun 08:10:08 PM 41.6558 -90.1775 264° West 437 503 28,000 432 Level Chicago Center
Sun 08:11:10 PM 41.6403 -90.3397 263° West 443 510 28,900 919 Climbing Chicago Center
Sun 08:12:12 PM 41.6261 -90.4978 263° West 434 499 29,900 823 Climbing Chicago Center
Sun 08:13:14 PM 41.6100 -90.6736 263° West 429 494 30,600 919 Climbing Chicago Center
Sun 08:14:16 PM 41.5944 -90.8314 263° West 431 496 31,800 677 Climbing Chicago Center
Sun 08:15:18 PM 41.5803 -90.9842 263° West 420 483 32,000 97 Climbing Chicago Center
Sun 08:16:20 PM 41.5656 -91.1406 263° West 426 490 32,000  Level Chicago Center
Sun 08:17:22 PM 41.5506 -91.2953 263° West 423 487 32,000  Level Chicago Center
Sun 08:18:24 PM 41.5322 -91.4814 263° West 423 487 32,000  Level Chicago Center
Sun 08:19:26 PM 41.5181 -91.6378 263° West 425 489 32,000  Level Chicago Center
Sun 08:20:28 PM 41.4989 -91.7892 260° West 427 491 32,000  Level Chicago Center
Sun 08:21:30 PM 41.4111 -91.8903 221° Southwest 423 487 32,000  Level Chicago Center
Sun 08:22:32 PM 41.3369 -92.0133 231° Southwest 426 490 32,000  Level Chicago Center
Sun 08:23:34 PM 41.2497 -92.1636 232° Southwest 430 495 32,000  Level Chicago Center
Sun 08:24:36 PM 41.1811 -92.2808 232° Southwest 433 498 32,000  Level Chicago Center
Sun 08:25:38 PM 41.1078 -92.4067 232° Southwest 434 499 32,000  Level Chicago Center
Sun 08:26:40 PM 41.0342 -92.5347 233° Southwest 439 505 32,000  Level Chicago Center
Sun 08:27:42 PM 40.9464 -92.6856 232° Southwest 437 503 32,000  Level Chicago Center
Sun 08:28:44 PM 40.8731 -92.8117 232° Southwest 438 504 32,000  Level Chicago Center
Sun 08:29:46 PM 40.8000 -92.9372 232° Southwest 438 504 32,000  Level Chicago Center
Sun 08:30:48 PM 40.7258 -93.0592 231° Southwest 434 499 32,000  Level Chicago Center
Sun 08:31:50 PM 40.6367 -93.2047 231° Southwest 432 497 32,000  Level Chicago Center
Sun 08:32:10 PM 40.6239 -93.2269 233° Southwest 430 495 32,000  Level Kansas Center
Sun 08:33:10 PM 40.5483 -93.3475 231° Southwest 432 497 32,000  Level Kansas Center
Sun 08:34:12 PM 40.4742 -93.4692 231° Southwest 431 496 32,000  Level Kansas Center
Sun 08:35:15 PM 40.3828 -93.6153 231° Southwest 436 502 32,000  Level Kansas Center
Sun 08:36:16 PM 40.3067 -93.7408 232° Southwest 441 507 32,000  Level Kansas Center
Sun 08:37:17 PM 40.2294 -93.8636 231° Southwest 442 509 32,000  Level Kansas Center
Sun 08:38:19 PM 40.1511 -93.9886 231° Southwest 446 513 32,000  Level Kansas Center
Sun 08:39:20 PM 40.0567 -94.1278 228° Southwest 452 520 32,000  Level Kansas Center
Sun 08:40:23 PM 39.9800 -94.2486 230° Southwest 451 519 32,000  Level Kansas Center
Sun 08:41:23 PM 39.8922 -94.3881 231° Southwest 448 516 32,000  Level Kansas Center
Sun 08:42:24 PM 39.8164 -94.5083 231° Southwest 449 517 32,000  Level Kansas Center
Sun 08:43:27 PM 39.7406 -94.6261 230° Southwest 445 512 32,000  Level Kansas Center
Sun 08:44:28 PM 39.6525 -94.7642 230° Southwest 446 513 32,000  Level Kansas Center
Sun 08:45:28 PM 39.5769 -94.8822 230° Southwest 445 512 32,000  Level Kansas Center
Sun 08:46:30 PM 39.4883 -95.0169 230° Southwest 442 509 32,000  Level Kansas Center
Sun 08:47:33 PM 39.4053 -95.1444 230° Southwest 443 510 32,000  Level Kansas Center
Sun 08:48:34 PM 39.3272 -95.2644 230° Southwest 439 505 32,000  Level Kansas Center
Sun 08:49:37 PM 39.2400 -95.3972 230° Southwest 452 520 32,000  Level Kansas Center
Sun 08:50:38 PM 39.1608 -95.5158 229° Southwest 446 513 32,000  Level Kansas Center
Sun 08:51:38 PM 39.0714 -95.6186 222° Southwest 465 535 32,000  Level Kansas Center
Sun 08:52:42 PM 38.9292 -95.6747 197° South 486 559 32,000  Level Kansas Center
Sun 08:53:43 PM 38.8131 -95.7414 204° Southwest 480 552 32,000  Level Kansas Center
Sun 08:54:43 PM 38.6783 -95.8175 204° Southwest 475 547 32,000  Level Kansas Center
Sun 08:55:44 PM 38.5642 -95.8825 204° Southwest 473 544 32,000  Level Kansas Center
Sun 08:56:48 PM 38.4503 -95.9478 204° Southwest 469 540 32,000  Level Kansas Center
Sun 08:57:48 PM 38.3164 -96.0222 204° Southwest 470 541 32,000  Level Kansas Center
Sun 08:58:49 PM 38.2011 -96.0886 204° Southwest 474 545 32,000  Level Kansas Center
Sun 08:59:50 PM 38.0825 -96.1550 204° Southwest 472 543 32,000  Level Kansas Center
Sun 09:00:51 PM 37.9636 -96.2222 204° Southwest 468 539 32,000  Level Kansas Center
Sun 09:01:55 PM 37.8450 -96.2875 203° Southwest 465 535 32,000  Level Kansas Center
Sun 09:02:57 PM 37.7272 -96.3542 204° Southwest 463 533 32,000  Level Kansas Center
Sun 09:03:57 PM 37.5825 -96.4339 204° Southwest 463 533 32,000  Level Kansas Center
Sun 09:04:59 PM 37.4653 -96.4972 203° Southwest 464 534 32,000  Level Kansas Center
Sun 09:06:01 PM 37.3464 -96.5639 204° Southwest 465 535 32,000  Level Kansas Center
Sun 09:07:01 PM 37.2275 -96.6275 203° Southwest 464 534 32,000  Level Kansas Center
Sun 09:08:04 PM 37.1086 -96.6908 203° Southwest 464 534 32,000  Level Kansas Center
Sun 09:09:05 PM 36.9903 -96.7547 203° Southwest 463 533 32,000  Level Kansas Center
Sun 09:10:06 PM 36.8681 -96.8200 203° Southwest 467 537 32,000  Level Kansas Center
Sun 09:11:09 PM 36.7278 -96.8947 203° Southwest 465 535 32,000  Level Kansas Center
Sun 09:12:10 PM 36.6086 -96.9597 204° Southwest 467 537 32,000  Level Kansas Center
Sun 09:13:13 PM 36.4861 -97.0233 203° Southwest 468 539 32,000  Level Kansas Center
Sun 09:14:14 PM 36.3672 -97.0864 203° Southwest 466 536 32,000  Level Kansas Center
Sun 09:15:15 PM 36.2467 -97.1489 203° Southwest 468 539 32,000  Level Kansas Center
Sun 09:16:15 PM 36.1272 -97.2128 203° Southwest 469 540 32,000  Level Kansas Center
Sun 09:17:17 PM 36.0075 -97.2744 203° Southwest 468 539 32,000  Level Kansas Center
Sun 09:18:20 PM 35.8858 -97.3378 203° Southwest 474 545 32,000  Level Kansas Center
Sun 09:19:21 PM 35.7642 -97.4006 203° Southwest 475 547 32,000  Level Kansas Center
Sun 09:20:21 PM 35.6211 -97.4764 203° Southwest 473 544 32,000  Level Kansas Center
Sun 09:21:13 PM 35.5250 -97.5283 204° Southwest 480 552 32,000  Level Fort Center
Sun 09:22:13 PM 35.3997 -97.5944 203° Southwest 480 552 32,000  Level Fort Center
Sun 09:23:13 PM 35.2664 -97.6067 184° South 480 552 32,000  Level Fort Center
Sun 09:24:13 PM 35.1308 -97.5836 172° South 475 547 32,000  Level Fort Center
Sun 09:25:13 PM 34.9972 -97.5631 173° South 481 554 32,000  Level Fort Center
Sun 09:26:13 PM 34.8639 -97.5425 173° South 481 554 32,000 -650 Level Fort Center
Sun 09:27:13 PM 34.7325 -97.5247 174° South 481 554 30,700 -1,800 Descending Fort Center
Sun 09:28:13 PM 34.6031 -97.5044 173° South 481 554 28,400 -2,700 Descending Fort Center
Sun 09:29:13 PM 34.4739 -97.4892 174° South 481 554 25,300 -2,200 Descending Fort Center
Sun 09:30:13 PM 34.3464 -97.5117 188° South 476 548 24,000 -650 Descending Fort Center
Sun 09:31:13 PM 34.2192 -97.5342 188° South 476 548 24,000 -850 Level Fort Center
Sun 09:32:13 PM 34.0814 -97.5464 184° South 462 532 22,300 -2,050 Descending Fort Center
Sun 09:33:13 PM 33.9561 -97.5661 187° South 462 532 19,900 -2,200 Descending Fort Center
Sun 09:34:13 PM 33.8353 -97.5836 187° South 456 525 17,900 -2,150 Descending Fort Center
Sun 09:35:13 PM 33.7161 -97.5983 186° South 441 507 15,600 -2,100 Descending Fort Center
Sun 09:36:13 PM 33.6158 -97.6131 187° South 418 481 13,700 -2,000 Descending Fort Center
Sun 09:37:13 PM 33.4950 -97.6028 176° South 393 452 11,600 -1,500 Descending Fort Center
Sun 09:38:13 PM 33.4219 -97.5403 144° Southeast 366 421 10,700 -950 Descending Fort Center
Sun 09:39:13 PM 33.3364 -97.4806 150° Southeast 340 391 9,700 -1,100 Descending Fort Center
Sun 09:40:13 PM 33.2697 -97.4333 149° Southeast 315 362 8,500 -1,400 Descending Fort Center
Sun 09:41:13 PM 33.1967 -97.3736 146° Southeast 296 341 6,900 -1,582 Descending Fort Center
Sun 09:41:44 PM 33.1667 -97.3333 132° Southeast 279 321 6,100 -1,250 Descending Dallas TRACON
Sun 09:42:49 PM 33.1000 -97.2833 148° Southeast 229 264 4,900 -1,281 Descending Dallas TRACON
Sun 09:43:13 PM 33.0858 -97.2672 136° Southeast 252 290 4,200 -1,750 Descending Fort Center

Login

Don't have an account? Register now (free) for customized features, flight alerts, and more!